Time,TemperatureF,DewpointF,PressureIn,WindDirection,WindDirectionDegrees,WindSpeedMPH,WindSpeedGustMPH,Humidity,HourlyPrecipIn,Conditions,Clouds,dailyrainin,SoftwareType,DateUTC
2013-04-16 08:33:00,28.8,16.3,30.38,NW,325,1.0,1.0,59,0.00,,,0.00,Wunderground v.1.15,2013-04-16 14:33:00,
2013-04-16 08:39:00,28.9,16.4,30.37,North,355,1.0,2.0,59,0.00,,,0.00,Wunderground v.1.15,2013-04-16 14:39:00,
2013-04-16 08:45:00,29.1,16.5,30.37,North,355,1.0,1.0,59,0.00,,,0.00,Wunderground v.1.15,2013-04-16 14:45:00,
2013-04-16 08:50:00,29.2,16.2,30.37,North,355,1.0,3.0,58,0.00,,,0.00,Wunderground v.1.15,2013-04-16 14:50:00,
2013-04-16 08:56:00,29.1,16.1,30.37,NNW,339,2.0,4.0,58,0.00,,,0.00,Wunderground v.1.15,2013-04-16 14:56:00,
2013-04-16 09:02:00,29.4,16.4,30.38,NW,324,2.0,6.0,58,0.00,,,0.00,Wunderground v.1.15,2013-04-16 15:02:00,
2013-04-16 09:07:00,29.4,16.4,30.38,NNW,338,2.0,6.0,58,0.00,,,0.00,Wunderground v.1.15,2013-04-16 15:07:00,
2013-04-16 09:12:00,29.9,16.9,30.38,NNW,341,2.0,2.0,58,0.00,,,0.00,Wunderground v.1.15,2013-04-16 15:12:00,
2013-04-16 09:18:00,30.2,16.8,30.38,North,5,1.0,3.0,57,0.00,,,0.00,Wunderground v.1.15,2013-04-16 15:18:00,
2013-04-16 09:23:00,30.3,16.5,30.37,NNW,341,2.0,2.0,56,0.00,,,0.00,Wunderground v.1.15,2013-04-16 15:23:00,
2013-04-16 09:28:00,30.5,17.1,30.37,NNW,341,1.0,2.0,57,0.00,,,0.00,Wunderground v.1.15,2013-04-16 15:28:00,
2013-04-16 09:34:00,30.6,16.7,30.37,NNW,346,1.0,2.0,56,0.00,,,0.00,Wunderground v.1.15,2013-04-16 15:34:00,
2013-04-16 09:40:00,31.0,16.3,30.37,NNW,340,1.0,1.0,54,0.00,,,0.00,Wunderground v.1.15,2013-04-16 15:40:00,
2013-04-16 09:46:00,31.6,16.8,30.37,East,101,1.0,1.0,54,0.00,,,0.00,Wunderground v.1.15,2013-04-16 15:46:00,
2013-04-16 09:52:00,31.6,16.4,30.37,NNW,331,1.0,4.0,53,0.00,,,0.00,Wunderground v.1.15,2013-04-16 15:52:00,
2013-04-16 09:58:00,31.8,17.0,30.37,NNW,331,1.0,4.0,54,0.00,,,0.00,Wunderground v.1.15,2013-04-16 15:58:00,
2013-04-16 10:03:00,31.7,16.9,30.37,NNW,345,1.0,3.0,54,0.00,,,0.00,Wunderground v.1.15,2013-04-16 16:03:00,
2013-04-16 10:09:00,32.0,16.3,30.37,NNE,26,1.0,3.0,52,0.00,,,0.00,Wunderground v.1.15,2013-04-16 16:09:00,
2013-04-16 10:15:00,32.3,16.2,30.37,NE,37,0.0,2.0,51,0.00,,,0.00,Wunderground v.1.15,2013-04-16 16:15:00,
2013-04-16 10:21:00,31.9,15.3,30.38,ENE,69,1.0,1.0,50,0.00,,,0.00,Wunderground v.1.15,2013-04-16 16:21:00,
2013-04-16 10:27:00,32.4,15.8,30.38,NNE,23,1.0,2.0,50,0.00,,,0.00,Wunderground v.1.15,2013-04-16 16:27:00,
2013-04-16 10:32:00,32.5,16.4,30.38,NNW,346,1.0,4.0,51,0.00,,,0.00,Wunderground v.1.15,2013-04-16 16:32:00,
2013-04-16 10:37:00,32.6,15.5,30.37,North,349,1.0,4.0,49,0.00,,,0.00,Wunderground v.1.15,2013-04-16 16:37:00,
2013-04-16 10:42:00,32.9,15.8,30.37,ENE,63,1.0,3.0,49,0.00,,,0.00,Wunderground v.1.15,2013-04-16 16:42:00,
2013-04-16 10:48:00,33.4,16.3,30.38,NNW,333,1.0,4.0,49,0.00,,,0.00,Wunderground v.1.15,2013-04-16 16:48:00,
2013-04-16 10:54:00,33.4,15.8,30.38,ENE,74,2.0,3.0,48,0.00,,,0.00,Wunderground v.1.15,2013-04-16 16:54:00,
2013-04-16 11:00:00,34.0,15.9,30.38,East,85,1.0,2.0,47,0.00,,,0.00,Wunderground v.1.15,2013-04-16 17:00:00,
2013-04-16 11:05:00,34.4,16.2,30.38,East,89,1.0,2.0,47,0.00,,,0.00,Wunderground v.1.15,2013-04-16 17:05:00,
2013-04-16 11:11:00,34.4,15.7,30.38,East,88,1.0,1.0,46,0.00,,,0.00,Wunderground v.1.15,2013-04-16 17:11:00,
2013-04-16 11:16:00,34.7,16.0,30.38,East,89,2.0,4.0,46,0.00,,,0.00,Wunderground v.1.15,2013-04-16 17:16:00,
2013-04-16 11:22:00,34.5,15.8,30.37,NNW,336,2.0,2.0,46,0.00,,,0.00,Wunderground v.1.15,2013-04-16 17:22:00,
2013-04-16 11:28:00,34.4,15.2,30.38,North,5,1.0,4.0,45,0.00,,,0.00,Wunderground v.1.15,2013-04-16 17:28:00,
2013-04-16 11:33:00,34.7,15.5,30.37,ENE,67,1.0,4.0,45,0.00,,,0.00,Wunderground v.1.15,2013-04-16 17:33:00,
2013-04-16 11:39:00,36.2,17.4,30.38,East,94,1.0,4.0,46,0.00,,,0.00,Wunderground v.1.15,2013-04-16 17:39:00,
2013-04-16 11:45:00,36.0,15.1,30.38,NNW,334,2.0,5.0,42,0.00,,,0.00,Wunderground v.1.15,2013-04-16 17:45:00,
2013-04-16 11:50:00,36.7,15.7,30.38,East,81,2.0,3.0,42,0.00,,,0.00,Wunderground v.1.15,2013-04-16 17:50:00,
2013-04-16 11:56:00,37.5,15.9,30.37,NNE,27,2.0,5.0,41,0.00,,,0.00,Wunderground v.1.15,2013-04-16 17:56:00,
2013-04-16 12:02:00,36.1,14.6,30.38,NW,323,2.0,4.0,41,0.00,,,0.00,Wunderground v.1.15,2013-04-16 18:02:00,
2013-04-16 12:08:00,36.1,15.7,30.37,East,82,1.0,4.0,43,0.00,,,0.00,Wunderground v.1.15,2013-04-16 18:08:00,
2013-04-16 12:13:00,36.3,15.9,30.37,NE,36,2.0,4.0,43,0.00,,,0.00,Wunderground v.1.15,2013-04-16 18:13:00,
2013-04-16 12:19:00,36.5,16.1,30.37,East,80,2.0,4.0,43,0.00,,,0.00,Wunderground v.1.15,2013-04-16 18:19:00,
2013-04-16 12:25:00,36.8,15.8,30.37,ENE,69,1.0,2.0,42,0.00,,,0.00,Wunderground v.1.15,2013-04-16 18:25:00,
2013-04-16 12:31:00,36.3,15.4,30.37,ESE,113,1.0,1.0,42,0.00,,,0.00,Wunderground v.1.15,2013-04-16 18:31:00,
2013-04-16 12:36:00,36.1,14.6,30.37,East,101,2.0,2.0,41,0.00,,,0.00,Wunderground v.1.15,2013-04-16 18:36:00,
2013-04-16 12:42:00,36.5,15.6,30.37,NNE,18,2.0,5.0,42,0.00,,,0.00,Wunderground v.1.15,2013-04-16 18:42:00,
2013-04-16 12:48:00,36.5,15.6,30.37,NE,39,2.0,5.0,42,0.00,,,0.00,Wunderground v.1.15,2013-04-16 18:48:00,
2013-04-16 12:54:00,36.8,15.8,30.37,North,355,2.0,5.0,42,0.00,,,0.00,Wunderground v.1.15,2013-04-16 18:54:00,
2013-04-16 13:00:00,36.6,15.1,30.37,NNE,25,2.0,2.0,41,0.00,,,0.00,Wunderground v.1.15,2013-04-16 19:00:00,
2013-04-16 13:05:00,36.3,15.4,30.37,East,86,2.0,4.0,42,0.00,,,0.00,Wunderground v.1.15,2013-04-16 19:05:00,
2013-04-16 13:10:00,36.7,17.3,30.37,NNE,29,1.0,3.0,45,0.00,,,0.00,Wunderground v.1.15,2013-04-16 19:10:00,
2013-04-16 13:16:00,38.2,17.1,30.37,North,5,2.0,7.0,42,0.00,,,0.00,Wunderground v.1.15,2013-04-16 19:16:00,
2013-04-16 13:22:00,36.9,15.9,30.37,NNW,341,4.0,7.0,42,0.00,,,0.00,Wunderground v.1.15,2013-04-16 19:22:00,
2013-04-16 13:27:00,36.4,16.0,30.37,NNW,340,4.0,7.0,43,0.00,,,0.00,Wunderground v.1.15,2013-04-16 19:27:00,
2013-04-16 13:33:00,36.5,16.6,30.37,NNE,27,5.0,7.0,44,0.00,,,0.00,Wunderground v.1.15,2013-04-16 19:33:00,
2013-04-16 13:39:00,36.8,15.8,30.37,North,355,3.0,8.0,42,0.00,,,0.00,Wunderground v.1.15,2013-04-16 19:39:00,
2013-04-16 13:44:00,37.9,18.4,30.37,NE,47,3.0,3.0,45,0.00,,,0.00,Wunderground v.1.15,2013-04-16 19:44:00,
2013-04-16 13:50:00,37.9,16.8,30.37,North,349,3.0,4.0,42,0.00,,,0.00,Wunderground v.1.15,2013-04-16 19:50:00,
2013-04-16 13:55:00,37.2,16.7,30.37,WNW,296,5.0,9.0,43,0.00,,,0.00,Wunderground v.1.15,2013-04-16 19:55:00,
2013-04-16 14:01:00,37.6,16.5,30.37,NNE,20,4.0,4.0,42,0.00,,,0.00,Wunderground v.1.15,2013-04-16 20:01:00,
2013-04-16 14:06:00,37.1,16.6,30.37,NNE,29,2.0,4.0,43,0.00,,,0.00,Wunderground v.1.15,2013-04-16 20:06:00,
2013-04-16 14:12:00,36.9,17.0,30.38,NNE,24,2.0,3.0,44,0.00,,,0.00,Wunderground v.1.15,2013-04-16 20:12:00,
2013-04-16 14:17:00,36.8,16.4,30.38,NNE,15,2.0,5.0,43,0.00,,,0.00,Wunderground v.1.15,2013-04-16 20:17:00,
2013-04-16 14:23:00,37.4,17.4,30.38,NNE,28,2.0,2.0,44,0.00,,,0.00,Wunderground v.1.15,2013-04-16 20:23:00,
2013-04-16 14:29:00,38.4,17.3,30.38,NE,42,2.0,3.0,42,0.00,,,0.00,Wunderground v.1.15,2013-04-16 20:29:00,
2013-04-16 14:35:00,39.3,18.6,30.38,ENE,74,1.0,5.0,43,0.00,,,0.00,Wunderground v.1.15,2013-04-16 20:35:00,
2013-04-16 14:40:00,39.4,17.6,30.38,ENE,61,2.0,2.0,41,0.00,,,0.00,Wunderground v.1.15,2013-04-16 20:40:00,
2013-04-16 14:46:00,39.1,16.2,30.38,West,267,1.0,4.0,39,0.00,,,0.00,Wunderground v.1.15,2013-04-16 20:46:00,
2013-04-16 14:51:00,39.6,15.4,30.38,East,92,1.0,4.0,37,0.00,,,0.00,Wunderground v.1.15,2013-04-16 20:51:00,
2013-04-16 14:57:00,39.3,14.5,30.37,East,97,2.0,4.0,36,0.00,,,0.00,Wunderground v.1.15,2013-04-16 20:57:00,
2013-04-16 15:03:00,39.1,15.6,30.38,NNE,12,2.0,3.0,38,0.00,,,0.00,Wunderground v.1.15,2013-04-16 21:03:00,
2013-04-16 15:08:00,38.6,13.3,30.38,NNW,336,2.0,5.0,35,0.00,,,0.00,Wunderground v.1.15,2013-04-16 21:08:00,
2013-04-16 15:14:00,38.7,14.6,30.38,WNW,303,2.0,6.0,37,0.00,,,0.00,Wunderground v.1.15,2013-04-16 21:14:00,
2013-04-16 15:20:00,39.5,14.1,30.38,East,92,3.0,5.0,35,0.00,,,0.00,Wunderground v.1.15,2013-04-16 21:20:00,
2013-04-16 15:26:00,39.5,13.4,30.38,ENE,70,3.0,5.0,34,0.00,,,0.00,Wunderground v.1.15,2013-04-16 21:26:00,
2013-04-16 15:32:00,39.1,13.1,30.38,East,83,2.0,5.0,34,0.00,,,0.00,Wunderground v.1.15,2013-04-16 21:32:00,
2013-04-16 15:38:00,39.3,13.2,30.38,NE,46,2.0,5.0,34,0.00,,,0.00,Wunderground v.1.15,2013-04-16 21:38:00,
2013-04-16 15:44:00,39.8,13.7,30.38,East,96,2.0,4.0,34,0.00,,,0.00,Wunderground v.1.15,2013-04-16 21:44:00,
2013-04-16 15:50:00,39.9,14.4,30.38,North,5,1.0,1.0,35,0.00,,,0.00,Wunderground v.1.15,2013-04-16 21:50:00,
2013-04-16 15:55:00,39.9,13.8,30.38,ESE,103,1.0,4.0,34,0.00,,,0.00,Wunderground v.1.15,2013-04-16 21:55:00,
2013-04-16 16:01:00,40.1,12.6,30.38,NNE,26,2.0,3.0,32,0.00,,,0.00,Wunderground v.1.15,2013-04-16 22:01:00,
2013-04-16 16:06:00,40.2,12.6,30.38,NW,317,2.0,3.0,32,0.00,,,0.00,Wunderground v.1.15,2013-04-16 22:06:00,
2013-04-16 16:11:00,39.8,12.3,30.38,NNW,342,3.0,5.0,32,0.00,,,0.00,Wunderground v.1.15,2013-04-16 22:11:00,
2013-04-16 16:17:00,39.7,11.5,30.38,NW,314,3.0,5.0,31,0.00,,,0.00,Wunderground v.1.15,2013-04-16 22:17:00,
2013-04-16 16:22:00,39.9,11.7,30.38,NNE,17,2.0,8.0,31,0.00,,,0.00,Wunderground v.1.15,2013-04-16 22:22:00,
2013-04-16 16:27:00,38.7,9.9,30.38,NW,315,4.0,9.0,30,0.00,,,0.00,Wunderground v.1.15,2013-04-16 22:27:00,
2013-04-16 16:33:00,39.1,12.4,30.38,NE,43,4.0,5.0,33,0.00,,,0.00,Wunderground v.1.15,2013-04-16 22:33:00,
2013-04-16 16:38:00,39.9,13.1,30.39,NNW,333,2.0,5.0,33,0.00,,,0.00,Wunderground v.1.15,2013-04-16 22:38:00,
2013-04-16 16:44:00,39.8,13.0,30.39,ESE,122,2.0,4.0,33,0.00,,,0.00,Wunderground v.1.15,2013-04-16 22:44:00,
2013-04-16 16:49:00,38.9,11.5,30.39,ENE,66,2.0,4.0,32,0.00,,,0.00,Wunderground v.1.15,2013-04-16 22:49:00,
2013-04-16 16:55:00,38.9,10.1,30.39,ESE,113,2.0,5.0,30,0.00,,,0.00,Wunderground v.1.15,2013-04-16 22:55:00,
2013-04-16 17:01:00,39.2,11.8,30.39,NNE,13,2.0,2.0,32,0.00,,,0.00,Wunderground v.1.15,2013-04-16 23:01:00,
2013-04-16 17:07:00,39.3,10.4,30.39,NNE,17,1.0,7.0,30,0.00,,,0.00,Wunderground v.1.15,2013-04-16 23:07:00,
2013-04-16 17:12:00,39.0,10.9,30.39,North,9,2.0,4.0,31,0.00,,,0.00,Wunderground v.1.15,2013-04-16 23:12:00,
2013-04-16 17:18:00,38.8,10.7,30.39,NNW,342,2.0,4.0,31,0.00,,,0.00,Wunderground v.1.15,2013-04-16 23:18:00,
2013-04-16 17:23:00,39.0,10.1,30.40,North,355,2.0,9.0,30,0.00,,,0.00,Wunderground v.1.15,2013-04-16 23:23:00,
2013-04-16 17:29:00,37.6,8.9,30.40,North,349,4.0,9.0,30,0.00,,,0.00,Wunderground v.1.15,2013-04-16 23:29:00,
2013-04-16 17:34:00,38.1,10.1,30.40,North,5,4.0,5.0,31,0.00,,,0.00,Wunderground v.1.15,2013-04-16 23:34:00,
2013-04-16 17:40:00,38.0,10.7,30.40,NE,34,3.0,3.0,32,0.00,,,0.00,Wunderground v.1.15,2013-04-16 23:40:00,
2013-04-16 17:46:00,37.9,9.9,30.40,East,98,3.0,4.0,31,0.00,,,0.00,Wunderground v.1.15,2013-04-16 23:46:00,
2013-04-16 17:52:00,37.4,8.7,30.40,NNW,347,2.0,3.0,30,0.00,,,0.00,Wunderground v.1.15,2013-04-16 23:52:00,
2013-04-16 17:58:00,37.5,9.6,30.40,NNE,25,3.0,7.0,31,0.00,,,0.00,Wunderground v.1.15,2013-04-16 23:58:00,
2013-04-16 18:03:00,37.4,10.9,30.41,NE,34,3.0,3.0,33,0.00,,,0.00,Wunderground v.1.15,2013-04-17 00:03:00,
2013-04-16 18:09:00,37.4,8.7,30.41,North,360,3.0,8.0,30,0.00,,,0.00,Wunderground v.1.15,2013-04-17 00:09:00,
2013-04-16 18:14:00,37.1,9.2,30.41,NNW,343,4.0,6.0,31,0.00,,,0.00,Wunderground v.1.15,2013-04-17 00:14:00,
2013-04-16 18:19:00,37.0,9.8,30.41,North,5,2.0,6.0,32,0.00,,,0.00,Wunderground v.1.15,2013-04-17 00:19:00,
2013-04-16 18:25:00,36.9,9.7,30.41,WNW,289,1.0,3.0,32,0.00,,,0.00,Wunderground v.1.15,2013-04-17 00:25:00,
2013-04-16 18:30:00,36.5,8.7,30.41,ESE,116,2.0,2.0,31,0.00,,,0.00,Wunderground v.1.15,2013-04-17 00:30:00,
2013-04-16 18:36:00,36.5,10.1,30.42,ENE,61,2.0,3.0,33,0.00,,,0.00,Wunderground v.1.15,2013-04-17 00:36:00,
2013-04-16 18:41:00,36.3,9.2,30.42,North,5,2.0,4.0,32,0.00,,,0.00,Wunderground v.1.15,2013-04-17 00:41:00,
2013-04-16 18:47:00,36.2,9.8,30.42,ENE,66,2.0,4.0,33,0.00,,,0.00,Wunderground v.1.15,2013-04-17 00:47:00,
2013-04-16 18:52:00,36.0,8.9,30.42,NNW,348,2.0,2.0,32,0.00,,,0.00,Wunderground v.1.15,2013-04-17 00:52:00,
2013-04-16 18:58:00,36.0,9.6,30.42,NNW,333,1.0,3.0,33,0.00,,,0.00,Wunderground v.1.15,2013-04-17 00:58:00,
2013-04-16 19:04:00,35.8,9.5,30.42,East,88,2.0,4.0,33,0.00,,,0.00,Wunderground v.1.15,2013-04-17 01:04:00,
2013-04-16 19:10:00,35.4,9.1,30.42,NE,49,1.0,2.0,33,0.00,,,0.00,Wunderground v.1.15,2013-04-17 01:10:00,
2013-04-16 19:16:00,35.1,8.2,30.42,NE,51,1.0,2.0,32,0.00,,,0.00,Wunderground v.1.15,2013-04-17 01:16:00,
2013-04-16 19:21:00,35.0,8.7,30.43,NNE,33,1.0,1.0,33,0.00,,,0.00,Wunderground v.1.15,2013-04-17 01:21:00,
2013-04-16 19:27:00,34.9,8.7,30.43,NE,49,1.0,1.0,33,0.00,,,0.00,Wunderground v.1.15,2013-04-17 01:27:00,
2013-04-16 19:33:00,34.7,9.1,30.43,NW,325,1.0,2.0,34,0.00,,,0.00,Wunderground v.1.15,2013-04-17 01:33:00,
2013-04-16 19:39:00,34.6,9.7,30.43,NNE,24,1.0,4.0,35,0.00,,,0.00,Wunderground v.1.15,2013-04-17 01:39:00,
2013-04-16 19:44:00,34.4,9.5,30.43,NNW,334,1.0,4.0,35,0.00,,,0.00,Wunderground v.1.15,2013-04-17 01:44:00,
2013-04-16 19:49:00,34.3,10.1,30.43,NE,53,1.0,4.0,36,0.00,,,0.00,Wunderground v.1.15,2013-04-17 01:49:00,
2013-04-16 19:55:00,34.1,9.9,30.43,NE,53,0.0,1.0,36,0.00,,,0.00,Wunderground v.1.15,2013-04-17 01:55:00,
2013-04-16 20:00:00,33.9,9.7,30.43,NE,53,0.0,1.0,36,0.00,,,0.00,Wunderground v.1.15,2013-04-17 02:00:00,
2013-04-16 20:06:00,33.7,9.5,30.43,NE,51,0.0,1.0,36,0.00,,,0.00,Wunderground v.1.15,2013-04-17 02:06:00,
2013-04-16 20:12:00,33.4,10.5,30.43,NE,50,1.0,2.0,38,0.00,,,0.00,Wunderground v.1.15,2013-04-17 02:12:00,
2013-04-16 20:18:00,33.2,9.7,30.44,ENE,58,1.0,2.0,37,0.00,,,0.00,Wunderground v.1.15,2013-04-17 02:18:00,
2013-04-16 20:24:00,32.9,10.0,30.44,NNE,28,1.0,2.0,38,0.00,,,0.00,Wunderground v.1.15,2013-04-17 02:24:00,
2013-04-16 20:30:00,32.6,10.3,30.44,North,5,0.0,1.0,39,0.00,,,0.00,Wunderground v.1.15,2013-04-17 02:30:00,
2013-04-16 20:36:00,32.2,11.1,30.44,North,360,0.0,2.0,41,0.00,,,0.00,Wunderground v.1.15,2013-04-17 02:36:00,
2013-04-16 20:42:00,31.8,10.7,30.45,North,360,0.0,1.0,41,0.00,,,0.00,Wunderground v.1.15,2013-04-17 02:42:00,
2013-04-16 20:48:00,31.5,11.0,30.45,North,360,0.0,1.0,42,0.00,,,0.00,Wunderground v.1.15,2013-04-17 02:48:00,
2013-04-16 20:54:00,31.2,11.3,30.45,North,360,0.0,1.0,43,0.00,,,0.00,Wunderground v.1.15,2013-04-17 02:54:00,
2013-04-16 20:59:00,31.1,10.6,30.45,North,360,0.0,1.0,42,0.00,,,0.00,Wunderground v.1.15,2013-04-17 02:59:00,
2013-04-16 21:05:00,30.8,10.9,30.45,North,360,0.0,1.0,43,0.00,,,0.00,Wunderground v.1.15,2013-04-17 03:05:00,
2013-04-16 21:11:00,30.5,10.1,30.46,North,360,0.0,1.0,42,0.00,,,0.00,Wunderground v.1.15,2013-04-17 03:11:00,
2013-04-16 21:17:00,30.2,9.8,30.46,North,360,0.0,1.0,42,0.00,,,0.00,Wunderground v.1.15,2013-04-17 03:17:00,
2013-04-16 21:23:00,30.3,9.9,30.47,NNW,327,1.0,3.0,42,0.00,,,0.00,Wunderground v.1.15,2013-04-17 03:23:00,
2013-04-16 21:29:00,30.0,9.6,30.47,NNW,327,1.0,3.0,42,0.00,,,0.00,Wunderground v.1.15,2013-04-17 03:29:00,
2013-04-16 21:34:00,30.0,9.6,30.47,NNW,327,1.0,1.0,42,0.00,,,0.00,Wunderground v.1.15,2013-04-17 03:34:00,
2013-04-16 21:40:00,29.9,9.6,30.47,NNW,327,0.0,1.0,42,0.00,,,0.00,Wunderground v.1.15,2013-04-17 03:40:00,
2013-04-16 21:46:00,29.7,9.9,30.48,NNW,327,0.0,1.0,43,0.00,,,0.00,Wunderground v.1.15,2013-04-17 03:46:00,
2013-04-16 21:51:00,29.6,10.3,30.48,NNW,327,0.0,1.0,44,0.00,,,0.00,Wunderground v.1.15,2013-04-17 03:51:00,
2013-04-16 21:57:00,29.5,9.7,30.48,NNW,327,0.0,1.0,43,0.00,,,0.00,Wunderground v.1.15,2013-04-17 03:57:00,
2013-04-16 22:00:00,29.5,9.7,30.48,NNW,327,0.0,1.0,43,0.00,,,0.00,Wunderground v.1.15,2013-04-17 04:00:00,
2013-04-16 22:01:00,29.5,10.2,30.48,NNW,327,0.0,1.0,44,0.00,,,0.00,Wunderground v.1.15,2013-04-17 04:01:00,
2013-04-16 22:02:00,29.5,10.2,30.48,NW,315,0.0,1.0,44,0.00,,,0.00,Wunderground v.1.15,2013-04-17 04:02:00,
2013-04-16 22:03:00,29.5,9.2,30.48,NW,315,0.0,1.0,42,0.00,,,0.00,Wunderground v.1.15,2013-04-17 04:03:00,
2013-04-16 22:04:00,29.5,9.7,30.48,NW,315,0.0,1.0,43,0.00,,,0.00,Wunderground v.1.15,2013-04-17 04:04:00,
2013-04-16 22:10:00,29.4,9.6,30.48,NW,315,0.0,1.0,43,0.00,,,0.00,Wunderground v.1.15,2013-04-17 04:10:00,
2013-04-16 22:16:00,29.2,8.9,30.48,NW,315,0.0,1.0,42,0.00,,,0.00,Wunderground v.1.15,2013-04-17 04:16:00,
2013-04-16 22:21:00,29.1,9.4,30.48,NW,315,0.0,1.0,43,0.00,,,0.00,Wunderground v.1.15,2013-04-17 04:21:00,
2013-04-16 22:26:00,28.9,10.7,30.49,NW,315,0.0,1.0,46,0.00,,,0.00,Wunderground v.1.15,2013-04-17 04:26:00,
2013-04-16 22:32:00,28.6,10.9,30.49,NW,315,0.0,1.0,47,0.00,,,0.00,Wunderground v.1.15,2013-04-17 04:32:00,
2013-04-16 22:38:00,28.3,10.6,30.48,NW,315,0.0,2.0,47,0.00,,,0.00,Wunderground v.1.15,2013-04-17 04:38:00,
2013-04-16 22:44:00,28.0,11.3,30.48,NW,315,1.0,2.0,49,0.00,,,0.00,Wunderground v.1.15,2013-04-17 04:44:00,
2013-04-16 22:50:00,27.8,12.0,30.48,NW,315,1.0,2.0,51,0.00,,,0.00,Wunderground v.1.15,2013-04-17 04:50:00,
2013-04-16 22:56:00,27.9,11.6,30.48,NW,315,1.0,2.0,50,0.00,,,0.00,Wunderground v.1.15,2013-04-17 04:56:00,
2013-04-16 23:02:00,27.8,11.1,30.48,NW,315,1.0,1.0,49,0.00,,,0.00,Wunderground v.1.15,2013-04-17 05:02:00,
2013-04-16 23:08:00,27.8,11.5,30.48,NW,315,1.0,1.0,50,0.00,,,0.00,Wunderground v.1.15,2013-04-17 05:08:00,
2013-04-16 23:13:00,27.7,11.0,30.48,NW,315,0.0,1.0,49,0.00,,,0.00,Wunderground v.1.15,2013-04-17 05:13:00,
2013-04-16 23:19:00,27.9,10.7,30.48,NW,315,0.0,1.0,48,0.00,,,0.00,Wunderground v.1.15,2013-04-17 05:19:00,
2013-04-16 23:24:00,28.0,11.7,30.49,NW,315,0.0,1.0,50,0.00,,,0.00,Wunderground v.1.15,2013-04-17 05:24:00,
2013-04-16 23:29:00,27.6,10.9,30.48,NW,315,0.0,1.0,49,0.00,,,0.00,Wunderground v.1.15,2013-04-17 05:29:00,
2013-04-16 23:35:00,27.4,11.6,30.48,NW,315,0.0,1.0,51,0.00,,,0.00,Wunderground v.1.15,2013-04-17 05:35:00,
2013-04-16 23:40:00,27.3,10.2,30.48,NW,315,0.0,1.0,48,0.00,,,0.00,Wunderground v.1.15,2013-04-17 05:40:00,
2013-04-16 23:45:00,27.1,12.2,30.48,NW,315,0.0,1.0,53,0.00,,,0.00,Wunderground v.1.15,2013-04-17 05:45:00,
2013-04-16 23:51:00,26.7,11.0,30.47,NW,315,0.0,1.0,51,0.00,,,0.00,Wunderground v.1.15,2013-04-17 05:51:00,
2013-04-16 23:56:00,26.7,11.4,30.47,NW,315,1.0,1.0,52,0.00,,,0.00,Wunderground v.1.15,2013-04-17 05:56:00,